sensor_id;sensor_type;location;lat;lon;timestamp;P1;durP1;ratioP1;P2;durP2;ratioP2
14858;SDS011;7521;51.700;6.874;2023-05-07T00:02:50;6.70;;;6.05;;
14858;SDS011;7521;51.700;6.874;2023-05-07T00:05:55;6.65;;;6.05;;
14858;SDS011;7521;51.700;6.874;2023-05-07T00:09:01;8.10;;;7.23;;
14858;SDS011;7521;51.700;6.874;2023-05-07T00:12:06;8.60;;;6.72;;
14858;SDS011;7521;51.700;6.874;2023-05-07T00:15:12;7.77;;;6.80;;
14858;SDS011;7521;51.700;6.874;2023-05-07T00:18:17;10.60;;;7.07;;
14858;SDS011;7521;51.700;6.874;2023-05-07T00:21:25;7.63;;;6.70;;
14858;SDS011;7521;51.700;6.874;2023-05-07T00:24:31;7.80;;;7.00;;
14858;SDS011;7521;51.700;6.874;2023-05-07T00:27:36;8.55;;;6.95;;
14858;SDS011;7521;51.700;6.874;2023-05-07T00:30:41;8.13;;;7.17;;
14858;SDS011;7521;51.700;6.874;2023-05-07T00:33:47;7.70;;;6.85;;
14858;SDS011;7521;51.700;6.874;2023-05-07T00:36:52;7.18;;;6.47;;
14858;SDS011;7521;51.700;6.874;2023-05-07T00:39:57;8.02;;;7.22;;
14858;SDS011;7521;51.700;6.874;2023-05-07T00:43:02;9.33;;;8.37;;
14858;SDS011;7521;51.700;6.874;2023-05-07T00:46:07;7.80;;;7.10;;
14858;SDS011;7521;51.700;6.874;2023-05-07T00:49:13;8.07;;;7.23;;
14858;SDS011;7521;51.700;6.874;2023-05-07T00:52:18;8.52;;;7.13;;
14858;SDS011;7521;51.700;6.874;2023-05-07T00:55:24;8.87;;;7.90;;
14858;SDS011;7521;51.700;6.874;2023-05-07T00:58:29;8.73;;;7.87;;
14858;SDS011;7521;51.700;6.874;2023-05-07T01:01:35;8.90;;;8.00;;
14858;SDS011;7521;51.700;6.874;2023-05-07T01:04:41;10.77;;;8.73;;
14858;SDS011;7521;51.700;6.874;2023-05-07T01:07:46;10.35;;;9.35;;
14858;SDS011;7521;51.700;6.874;2023-05-07T01:10:52;15.20;;;10.80;;
14858;SDS011;7521;51.700;6.874;2023-05-07T01:13:58;11.80;;;10.70;;
14858;SDS011;7521;51.700;6.874;2023-05-07T01:17:04;12.43;;;10.87;;
14858;SDS011;7521;51.700;6.874;2023-05-07T01:20:09;13.27;;;11.87;;
14858;SDS011;7521;51.700;6.874;2023-05-07T01:23:18;14.07;;;12.77;;
14858;SDS011;7521;51.700;6.874;2023-05-07T01:26:24;13.63;;;12.20;;
14858;SDS011;7521;51.700;6.874;2023-05-07T01:29:29;11.87;;;10.80;;
14858;SDS011;7521;51.700;6.874;2023-05-07T01:32:39;12.77;;;11.57;;
14858;SDS011;7521;51.700;6.874;2023-05-07T01:35:46;12.80;;;11.60;;
14858;SDS011;7521;51.700;6.874;2023-05-07T01:38:52;13.53;;;12.17;;
14858;SDS011;7521;51.700;6.874;2023-05-07T01:41:57;14.47;;;12.90;;
14858;SDS011;7521;51.700;6.874;2023-05-07T01:45:04;12.30;;;11.07;;
14858;SDS011;7521;51.700;6.874;2023-05-07T01:48:10;13.57;;;11.77;;
14858;SDS011;7521;51.700;6.874;2023-05-07T01:51:16;13.70;;;12.20;;
14858;SDS011;7521;51.700;6.874;2023-05-07T01:54:25;12.38;;;11.27;;
14858;SDS011;7521;51.700;6.874;2023-05-07T01:57:30;13.63;;;12.23;;
14858;SDS011;7521;51.700;6.874;2023-05-07T02:00:35;12.57;;;11.37;;
14858;SDS011;7521;51.700;6.874;2023-05-07T02:03:40;14.40;;;11.80;;
14858;SDS011;7521;51.700;6.874;2023-05-07T02:06:46;13.27;;;11.93;;
14858;SDS011;7521;51.700;6.874;2023-05-07T02:09:51;13.50;;;12.13;;
14858;SDS011;7521;51.700;6.874;2023-05-07T02:12:56;13.18;;;11.70;;
14858;SDS011;7521;51.700;6.874;2023-05-07T02:16:01;12.95;;;11.75;;
14858;SDS011;7521;51.700;6.874;2023-05-07T02:19:07;13.70;;;12.40;;
14858;SDS011;7521;51.700;6.874;2023-05-07T02:22:12;13.70;;;11.82;;
14858;SDS011;7521;51.700;6.874;2023-05-07T02:25:17;14.35;;;12.77;;
14858;SDS011;7521;51.700;6.874;2023-05-07T02:28:22;15.38;;;11.70;;
14858;SDS011;7521;51.700;6.874;2023-05-07T02:31:28;14.13;;;12.73;;
14858;SDS011;7521;51.700;6.874;2023-05-07T02:34:33;13.35;;;12.05;;
14858;SDS011;7521;51.700;6.874;2023-05-07T02:37:38;12.57;;;11.38;;
14858;SDS011;7521;51.700;6.874;2023-05-07T02:40:43;13.38;;;12.00;;
14858;SDS011;7521;51.700;6.874;2023-05-07T02:43:48;12.77;;;11.47;;
14858;SDS011;7521;51.700;6.874;2023-05-07T02:46:54;13.60;;;12.10;;
14858;SDS011;7521;51.700;6.874;2023-05-07T02:49:59;12.83;;;11.53;;
14858;SDS011;7521;51.700;6.874;2023-05-07T02:53:04;12.52;;;11.20;;
14858;SDS011;7521;51.700;6.874;2023-05-07T02:56:09;13.67;;;11.90;;
14858;SDS011;7521;51.700;6.874;2023-05-07T02:59:14;12.85;;;11.48;;
14858;SDS011;7521;51.700;6.874;2023-05-07T03:02:19;13.13;;;11.90;;
14858;SDS011;7521;51.700;6.874;2023-05-07T03:05:25;12.87;;;11.57;;
14858;SDS011;7521;51.700;6.874;2023-05-07T03:08:30;13.55;;;11.55;;
14858;SDS011;7521;51.700;6.874;2023-05-07T03:11:35;12.25;;;11.15;;
14858;SDS011;7521;51.700;6.874;2023-05-07T03:14:40;12.23;;;10.90;;
14858;SDS011;7521;51.700;6.874;2023-05-07T03:17:45;13.03;;;11.73;;
14858;SDS011;7521;51.700;6.874;2023-05-07T03:20:51;12.90;;;11.60;;
14858;SDS011;7521;51.700;6.874;2023-05-07T03:23:56;12.07;;;10.73;;
14858;SDS011;7521;51.700;6.874;2023-05-07T03:27:01;12.18;;;11.07;;
14858;SDS011;7521;51.700;6.874;2023-05-07T03:30:07;12.60;;;11.47;;
14858;SDS011;7521;51.700;6.874;2023-05-07T03:33:12;12.87;;;11.67;;
14858;SDS011;7521;51.700;6.874;2023-05-07T03:36:17;12.40;;;11.10;;
14858;SDS011;7521;51.700;6.874;2023-05-07T03:39:22;13.18;;;11.88;;
14858;SDS011;7521;51.700;6.874;2023-05-07T03:42:28;12.10;;;11.00;;
14858;SDS011;7521;51.700;6.874;2023-05-07T03:45:33;12.53;;;11.23;;
14858;SDS011;7521;51.700;6.874;2023-05-07T03:48:38;13.23;;;11.77;;
14858;SDS011;7521;51.700;6.874;2023-05-07T03:51:43;12.93;;;11.77;;
14858;SDS011;7521;51.700;6.874;2023-05-07T03:54:49;13.57;;;12.27;;
14858;SDS011;7521;51.700;6.874;2023-05-07T03:57:54;13.90;;;12.40;;
14858;SDS011;7521;51.700;6.874;2023-05-07T04:00:59;14.17;;;12.77;;
14858;SDS011;7521;51.700;6.874;2023-05-07T04:04:04;12.63;;;11.32;;
14858;SDS011;7521;51.700;6.874;2023-05-07T04:07:10;13.17;;;11.83;;
14858;SDS011;7521;51.700;6.874;2023-05-07T04:10:15;14.38;;;12.98;;
14858;SDS011;7521;51.700;6.874;2023-05-07T04:13:20;13.53;;;12.13;;
14858;SDS011;7521;51.700;6.874;2023-05-07T04:16:25;13.32;;;12.02;;
14858;SDS011;7521;51.700;6.874;2023-05-07T04:19:30;13.07;;;11.77;;
14858;SDS011;7521;51.700;6.874;2023-05-07T04:22:37;14.20;;;12.70;;
14858;SDS011;7521;51.700;6.874;2023-05-07T04:25:42;13.40;;;12.10;;
14858;SDS011;7521;51.700;6.874;2023-05-07T04:28:48;13.63;;;12.23;;
14858;SDS011;7521;51.700;6.874;2023-05-07T04:31:53;13.40;;;12.07;;
14858;SDS011;7521;51.700;6.874;2023-05-07T04:35:00;12.67;;;11.37;;
14858;SDS011;7521;51.700;6.874;2023-05-07T04:38:05;12.47;;;11.37;;
14858;SDS011;7521;51.700;6.874;2023-05-07T04:41:12;14.00;;;12.53;;
14858;SDS011;7521;51.700;6.874;2023-05-07T04:44:17;14.60;;;11.30;;
14858;SDS011;7521;51.700;6.874;2023-05-07T04:47:22;13.80;;;12.35;;
14858;SDS011;7521;51.700;6.874;2023-05-07T04:50:27;13.77;;;10.97;;
14858;SDS011;7521;51.700;6.874;2023-05-07T04:53:33;12.98;;;11.68;;
14858;SDS011;7521;51.700;6.874;2023-05-07T04:56:38;13.47;;;12.17;;
14858;SDS011;7521;51.700;6.874;2023-05-07T04:59:43;12.70;;;11.40;;
14858;SDS011;7521;51.700;6.874;2023-05-07T05:02:49;14.70;;;11.90;;
14858;SDS011;7521;51.700;6.874;2023-05-07T05:05:54;12.27;;;11.07;;
14858;SDS011;7521;51.700;6.874;2023-05-07T05:08:59;12.60;;;11.37;;
14858;SDS011;7521;51.700;6.874;2023-05-07T05:12:04;13.05;;;11.57;;
14858;SDS011;7521;51.700;6.874;2023-05-07T05:15:12;13.00;;;11.70;;
14858;SDS011;7521;51.700;6.874;2023-05-07T05:18:17;12.33;;;11.07;;
14858;SDS011;7521;51.700;6.874;2023-05-07T05:21:23;13.13;;;11.15;;
14858;SDS011;7521;51.700;6.874;2023-05-07T05:24:28;13.70;;;12.35;;
14858;SDS011;7521;51.700;6.874;2023-05-07T05:27:33;13.20;;;11.68;;
14858;SDS011;7521;51.700;6.874;2023-05-07T05:30:39;13.47;;;11.27;;
14858;SDS011;7521;51.700;6.874;2023-05-07T05:33:44;14.57;;;11.13;;
14858;SDS011;7521;51.700;6.874;2023-05-07T05:36:49;12.93;;;11.73;;
14858;SDS011;7521;51.700;6.874;2023-05-07T05:39:54;13.80;;;12.40;;
14858;SDS011;7521;51.700;6.874;2023-05-07T05:43:00;12.80;;;11.50;;
14858;SDS011;7521;51.700;6.874;2023-05-07T05:46:05;12.15;;;10.90;;
14858;SDS011;7521;51.700;6.874;2023-05-07T05:49:11;12.23;;;10.70;;
14858;SDS011;7521;51.700;6.874;2023-05-07T05:52:16;12.05;;;10.15;;
14858;SDS011;7521;51.700;6.874;2023-05-07T05:55:22;11.97;;;10.73;;
14858;SDS011;7521;51.700;6.874;2023-05-07T05:58:27;12.03;;;10.80;;
14858;SDS011;7521;51.700;6.874;2023-05-07T06:01:32;12.10;;;11.00;;
14858;SDS011;7521;51.700;6.874;2023-05-07T06:04:38;12.30;;;10.47;;
14858;SDS011;7521;51.700;6.874;2023-05-07T06:07:43;11.70;;;9.90;;
14858;SDS011;7521;51.700;6.874;2023-05-07T06:10:48;10.68;;;9.60;;
14858;SDS011;7521;51.700;6.874;2023-05-07T06:13:53;10.30;;;9.20;;
14858;SDS011;7521;51.700;6.874;2023-05-07T06:16:58;10.50;;;9.40;;
14858;SDS011;7521;51.700;6.874;2023-05-07T06:20:03;10.48;;;9.38;;
14858;SDS011;7521;51.700;6.874;2023-05-07T06:23:09;11.37;;;8.83;;
14858;SDS011;7521;51.700;6.874;2023-05-07T06:26:14;10.85;;;9.75;;
14858;SDS011;7521;51.700;6.874;2023-05-07T06:29:19;10.05;;;9.10;;
14858;SDS011;7521;51.700;6.874;2023-05-07T06:32:24;10.27;;;9.37;;
14858;SDS011;7521;51.700;6.874;2023-05-07T06:35:29;11.20;;;9.48;;
14858;SDS011;7521;51.700;6.874;2023-05-07T06:38:35;9.38;;;8.25;;
14858;SDS011;7521;51.700;6.874;2023-05-07T06:41:40;9.98;;;8.73;;
14858;SDS011;7521;51.700;6.874;2023-05-07T06:44:45;8.20;;;7.50;;
14858;SDS011;7521;51.700;6.874;2023-05-07T06:47:50;8.73;;;7.93;;
14858;SDS011;7521;51.700;6.874;2023-05-07T06:50:55;8.73;;;7.82;;
14858;SDS011;7521;51.700;6.874;2023-05-07T06:54:02;8.10;;;7.27;;
14858;SDS011;7521;51.700;6.874;2023-05-07T06:57:09;8.33;;;7.30;;
14858;SDS011;7521;51.700;6.874;2023-05-07T07:00:14;8.13;;;7.32;;
14858;SDS011;7521;51.700;6.874;2023-05-07T07:03:19;8.80;;;7.40;;
14858;SDS011;7521;51.700;6.874;2023-05-07T07:06:25;8.33;;;7.37;;
14858;SDS011;7521;51.700;6.874;2023-05-07T07:09:30;8.27;;;7.47;;
14858;SDS011;7521;51.700;6.874;2023-05-07T07:12:35;7.83;;;7.03;;
14858;SDS011;7521;51.700;6.874;2023-05-07T07:15:41;7.70;;;7.00;;
14858;SDS011;7521;51.700;6.874;2023-05-07T07:18:46;8.97;;;7.00;;
14858;SDS011;7521;51.700;6.874;2023-05-07T07:21:51;7.55;;;6.65;;
14858;SDS011;7521;51.700;6.874;2023-05-07T07:24:56;7.68;;;7.05;;
14858;SDS011;7521;51.700;6.874;2023-05-07T07:28:01;7.37;;;6.57;;
14858;SDS011;7521;51.700;6.874;2023-05-07T07:31:07;7.90;;;7.10;;
14858;SDS011;7521;51.700;6.874;2023-05-07T07:34:12;8.05;;;7.03;;
14858;SDS011;7521;51.700;6.874;2023-05-07T07:37:17;8.68;;;6.10;;
14858;SDS011;7521;51.700;6.874;2023-05-07T07:40:22;8.30;;;7.03;;
14858;SDS011;7521;51.700;6.874;2023-05-07T07:43:27;8.03;;;6.33;;
14858;SDS011;7521;51.700;6.874;2023-05-07T07:46:33;8.00;;;7.20;;
14858;SDS011;7521;51.700;6.874;2023-05-07T07:49:38;7.37;;;6.67;;
14858;SDS011;7521;51.700;6.874;2023-05-07T07:52:44;8.83;;;6.73;;
14858;SDS011;7521;51.700;6.874;2023-05-07T07:55:49;8.93;;;6.87;;
14858;SDS011;7521;51.700;6.874;2023-05-07T07:58:55;7.77;;;6.67;;
14858;SDS011;7521;51.700;6.874;2023-05-07T08:02:00;7.87;;;6.67;;
14858;SDS011;7521;51.700;6.874;2023-05-07T08:05:05;7.73;;;6.87;;
14858;SDS011;7521;51.700;6.874;2023-05-07T08:08:11;7.43;;;6.70;;
14858;SDS011;7521;51.700;6.874;2023-05-07T08:11:16;9.05;;;7.50;;
14858;SDS011;7521;51.700;6.874;2023-05-07T08:14:21;7.77;;;7.00;;
14858;SDS011;7521;51.700;6.874;2023-05-07T08:17:27;10.83;;;6.67;;
14858;SDS011;7521;51.700;6.874;2023-05-07T08:20:32;7.60;;;6.87;;
14858;SDS011;7521;51.700;6.874;2023-05-07T08:23:38;7.23;;;6.53;;
14858;SDS011;7521;51.700;6.874;2023-05-07T08:26:43;9.27;;;7.13;;
14858;SDS011;7521;51.700;6.874;2023-05-07T08:29:49;7.03;;;6.33;;
14858;SDS011;7521;51.700;6.874;2023-05-07T08:32:54;7.00;;;6.40;;
14858;SDS011;7521;51.700;6.874;2023-05-07T08:36:00;8.30;;;6.38;;
14858;SDS011;7521;51.700;6.874;2023-05-07T08:39:05;7.97;;;6.73;;
14858;SDS011;7521;51.700;6.874;2023-05-07T08:42:10;6.93;;;6.20;;
14858;SDS011;7521;51.700;6.874;2023-05-07T08:45:16;8.03;;;6.57;;
14858;SDS011;7521;51.700;6.874;2023-05-07T08:48:22;7.13;;;6.43;;
14858;SDS011;7521;51.700;6.874;2023-05-07T08:51:30;8.40;;;7.70;;
14858;SDS011;7521;51.700;6.874;2023-05-07T08:54:36;7.33;;;6.47;;
14858;SDS011;7521;51.700;6.874;2023-05-07T08:57:42;10.83;;;6.23;;
14858;SDS011;7521;51.700;6.874;2023-05-07T09:00:47;8.03;;;6.20;;
14858;SDS011;7521;51.700;6.874;2023-05-07T09:03:52;7.90;;;6.03;;
14858;SDS011;7521;51.700;6.874;2023-05-07T09:06:58;6.83;;;5.63;;
14858;SDS011;7521;51.700;6.874;2023-05-07T09:10:08;6.73;;;5.80;;
14858;SDS011;7521;51.700;6.874;2023-05-07T09:13:14;9.80;;;6.60;;
14858;SDS011;7521;51.700;6.874;2023-05-07T09:16:20;6.67;;;5.67;;
14858;SDS011;7521;51.700;6.874;2023-05-07T09:19:25;8.90;;;6.47;;
14858;SDS011;7521;51.700;6.874;2023-05-07T09:22:31;7.07;;;6.37;;
14858;SDS011;7521;51.700;6.874;2023-05-07T09:25:37;8.33;;;6.90;;
14858;SDS011;7521;51.700;6.874;2023-05-07T09:28:42;7.37;;;6.67;;
14858;SDS011;7521;51.700;6.874;2023-05-07T09:31:47;9.15;;;8.02;;
14858;SDS011;7521;51.700;6.874;2023-05-07T09:34:52;8.25;;;6.65;;
14858;SDS011;7521;51.700;6.874;2023-05-07T09:37:58;7.30;;;6.23;;
14858;SDS011;7521;51.700;6.874;2023-05-07T09:41:07;7.90;;;7.13;;
14858;SDS011;7521;51.700;6.874;2023-05-07T09:44:13;8.07;;;7.10;;
14858;SDS011;7521;51.700;6.874;2023-05-07T09:47:19;9.80;;;7.67;;
14858;SDS011;7521;51.700;6.874;2023-05-07T09:50:28;8.17;;;7.23;;
14858;SDS011;7521;51.700;6.874;2023-05-07T09:53:34;8.43;;;6.90;;
14858;SDS011;7521;51.700;6.874;2023-05-07T09:56:39;7.30;;;6.60;;
14858;SDS011;7521;51.700;6.874;2023-05-07T09:59:46;6.60;;;5.97;;
14858;SDS011;7521;51.700;6.874;2023-05-07T10:02:52;8.63;;;7.40;;
14858;SDS011;7521;51.700;6.874;2023-05-07T10:05:58;7.73;;;7.03;;
14858;SDS011;7521;51.700;6.874;2023-05-07T10:09:03;7.87;;;7.17;;
14858;SDS011;7521;51.700;6.874;2023-05-07T10:12:10;8.63;;;6.93;;
14858;SDS011;7521;51.700;6.874;2023-05-07T10:15:15;10.23;;;6.77;;
14858;SDS011;7521;51.700;6.874;2023-05-07T10:18:21;10.13;;;5.67;;
14858;SDS011;7521;51.700;6.874;2023-05-07T10:21:35;5.80;;;5.00;;
14858;SDS011;7521;51.700;6.874;2023-05-07T10:24:41;6.93;;;5.10;;
14858;SDS011;7521;51.700;6.874;2023-05-07T10:27:47;5.40;;;4.40;;
14858;SDS011;7521;51.700;6.874;2023-05-07T10:33:59;9.13;;;5.87;;
14858;SDS011;7521;51.700;6.874;2023-05-07T10:37:05;9.50;;;5.60;;
14858;SDS011;7521;51.700;6.874;2023-05-07T10:40:10;7.33;;;5.43;;
14858;SDS011;7521;51.700;6.874;2023-05-07T10:43:16;5.33;;;4.67;;
14858;SDS011;7521;51.700;6.874;2023-05-07T10:46:21;5.30;;;4.80;;
14858;SDS011;7521;51.700;6.874;2023-05-07T10:49:27;7.47;;;5.37;;
14858;SDS011;7521;51.700;6.874;2023-05-07T10:52:32;3.77;;;3.47;;
14858;SDS011;7521;51.700;6.874;2023-05-07T10:55:37;4.53;;;4.03;;
14858;SDS011;7521;51.700;6.874;2023-05-07T10:58:42;6.83;;;4.73;;
14858;SDS011;7521;51.700;6.874;2023-05-07T11:02:00;6.82;;;4.47;;
14858;SDS011;7521;51.700;6.874;2023-05-07T11:05:21;5.93;;;3.33;;
14858;SDS011;7521;51.700;6.874;2023-05-07T11:08:26;4.77;;;3.40;;
14858;SDS011;7521;51.700;6.874;2023-05-07T11:11:51;4.00;;;3.60;;
14858;SDS011;7521;51.700;6.874;2023-05-07T11:14:57;4.80;;;4.25;;
14858;SDS011;7521;51.700;6.874;2023-05-07T11:18:02;6.97;;;5.50;;
14858;SDS011;7521;51.700;6.874;2023-05-07T11:21:08;5.17;;;4.60;;
14858;SDS011;7521;51.700;6.874;2023-05-07T11:24:13;5.43;;;4.07;;
14858;SDS011;7521;51.700;6.874;2023-05-07T11:27:23;4.57;;;3.93;;
14858;SDS011;7521;51.700;6.874;2023-05-07T11:30:28;4.63;;;3.40;;
14858;SDS011;7521;51.700;6.874;2023-05-07T11:33:34;4.40;;;3.63;;
14858;SDS011;7521;51.700;6.874;2023-05-07T11:36:41;4.50;;;3.50;;
14858;SDS011;7521;51.700;6.874;2023-05-07T11:39:47;4.03;;;3.63;;
14858;SDS011;7521;51.700;6.874;2023-05-07T11:42:53;4.67;;;3.97;;
14858;SDS011;7521;51.700;6.874;2023-05-07T11:46:05;4.60;;;3.80;;
14858;SDS011;7521;51.700;6.874;2023-05-07T11:49:10;4.57;;;4.10;;
14858;SDS011;7521;51.700;6.874;2023-05-07T11:52:15;4.23;;;3.60;;
14858;SDS011;7521;51.700;6.874;2023-05-07T11:55:21;5.33;;;3.70;;
14858;SDS011;7521;51.700;6.874;2023-05-07T11:58:27;4.20;;;3.80;;
14858;SDS011;7521;51.700;6.874;2023-05-07T12:01:34;3.73;;;3.37;;
14858;SDS011;7521;51.700;6.874;2023-05-07T12:04:40;6.13;;;3.03;;
14858;SDS011;7521;51.700;6.874;2023-05-07T12:07:45;4.53;;;2.87;;
14858;SDS011;7521;51.700;6.874;2023-05-07T12:10:50;6.57;;;3.80;;
14858;SDS011;7521;51.700;6.874;2023-05-07T12:13:56;3.43;;;2.63;;
14858;SDS011;7521;51.700;6.874;2023-05-07T12:17:01;3.45;;;2.30;;
14858;SDS011;7521;51.700;6.874;2023-05-07T12:20:08;5.73;;;2.63;;
14858;SDS011;7521;51.700;6.874;2023-05-07T12:23:13;3.47;;;2.10;;
14858;SDS011;7521;51.700;6.874;2023-05-07T12:26:19;3.73;;;2.40;;
14858;SDS011;7521;51.700;6.874;2023-05-07T12:29:24;3.33;;;3.03;;
14858;SDS011;7521;51.700;6.874;2023-05-07T12:32:30;4.67;;;2.90;;
14858;SDS011;7521;51.700;6.874;2023-05-07T12:35:41;6.33;;;3.27;;
14858;SDS011;7521;51.700;6.874;2023-05-07T12:38:48;4.50;;;2.87;;
14858;SDS011;7521;51.700;6.874;2023-05-07T12:41:55;4.87;;;3.97;;
14858;SDS011;7521;51.700;6.874;2023-05-07T12:45:07;6.17;;;4.27;;
14858;SDS011;7521;51.700;6.874;2023-05-07T12:48:12;7.43;;;3.90;;
14858;SDS011;7521;51.700;6.874;2023-05-07T12:51:17;6.03;;;5.40;;
14858;SDS011;7521;51.700;6.874;2023-05-07T12:54:29;8.17;;;4.90;;
14858;SDS011;7521;51.700;6.874;2023-05-07T12:57:38;6.80;;;4.23;;
14858;SDS011;7521;51.700;6.874;2023-05-07T13:00:45;10.17;;;4.83;;
14858;SDS011;7521;51.700;6.874;2023-05-07T13:03:52;5.43;;;4.67;;
14858;SDS011;7521;51.700;6.874;2023-05-07T13:06:57;5.67;;;4.80;;
14858;SDS011;7521;51.700;6.874;2023-05-07T13:10:03;8.90;;;5.23;;
14858;SDS011;7521;51.700;6.874;2023-05-07T13:13:08;5.50;;;5.00;;
14858;SDS011;7521;51.700;6.874;2023-05-07T13:16:14;6.20;;;4.83;;
14858;SDS011;7521;51.700;6.874;2023-05-07T13:19:19;5.55;;;4.97;;
14858;SDS011;7521;51.700;6.874;2023-05-07T13:22:24;4.82;;;4.30;;
14858;SDS011;7521;51.700;6.874;2023-05-07T13:25:30;7.37;;;5.17;;
14858;SDS011;7521;51.700;6.874;2023-05-07T13:28:35;5.73;;;4.43;;
14858;SDS011;7521;51.700;6.874;2023-05-07T13:31:41;9.50;;;4.70;;
14858;SDS011;7521;51.700;6.874;2023-05-07T13:34:48;5.67;;;3.77;;
14858;SDS011;7521;51.700;6.874;2023-05-07T13:37:54;7.88;;;5.97;;
14858;SDS011;7521;51.700;6.874;2023-05-07T13:40:59;6.37;;;5.67;;
14858;SDS011;7521;51.700;6.874;2023-05-07T13:44:04;6.57;;;4.73;;
14858;SDS011;7521;51.700;6.874;2023-05-07T13:47:10;4.53;;;4.00;;
14858;SDS011;7521;51.700;6.874;2023-05-07T13:50:15;3.80;;;3.37;;
14858;SDS011;7521;51.700;6.874;2023-05-07T13:53:21;4.50;;;3.37;;
14858;SDS011;7521;51.700;6.874;2023-05-07T13:56:26;6.15;;;3.70;;
14858;SDS011;7521;51.700;6.874;2023-05-07T13:59:33;6.43;;;4.50;;
14858;SDS011;7521;51.700;6.874;2023-05-07T14:02:38;4.43;;;3.93;;
14858;SDS011;7521;51.700;6.874;2023-05-07T14:05:43;5.63;;;4.03;;
14858;SDS011;7521;51.700;6.874;2023-05-07T14:08:48;6.03;;;4.43;;
14858;SDS011;7521;51.700;6.874;2023-05-07T14:11:53;5.28;;;4.03;;
14858;SDS011;7521;51.700;6.874;2023-05-07T14:14:59;6.10;;;4.77;;
14858;SDS011;7521;51.700;6.874;2023-05-07T14:18:04;5.23;;;3.70;;
14858;SDS011;7521;51.700;6.874;2023-05-07T14:21:09;6.57;;;4.27;;
14858;SDS011;7521;51.700;6.874;2023-05-07T14:24:15;5.60;;;3.73;;
14858;SDS011;7521;51.700;6.874;2023-05-07T14:27:20;5.97;;;4.10;;
14858;SDS011;7521;51.700;6.874;2023-05-07T14:30:25;6.10;;;4.07;;
14858;SDS011;7521;51.700;6.874;2023-05-07T14:33:30;4.63;;;3.70;;
14858;SDS011;7521;51.700;6.874;2023-05-07T14:36:35;4.10;;;3.47;;
14858;SDS011;7521;51.700;6.874;2023-05-07T14:39:41;4.85;;;4.18;;
14858;SDS011;7521;51.700;6.874;2023-05-07T14:42:46;5.13;;;4.63;;
14858;SDS011;7521;51.700;6.874;2023-05-07T14:45:51;6.23;;;5.33;;
14858;SDS011;7521;51.700;6.874;2023-05-07T14:48:57;8.90;;;5.30;;
14858;SDS011;7521;51.700;6.874;2023-05-07T14:52:02;6.73;;;5.43;;
14858;SDS011;7521;51.700;6.874;2023-05-07T14:55:07;5.70;;;5.17;;
14858;SDS011;7521;51.700;6.874;2023-05-07T14:58:13;5.10;;;4.60;;
14858;SDS011;7521;51.700;6.874;2023-05-07T15:01:19;6.33;;;5.10;;
14858;SDS011;7521;51.700;6.874;2023-05-07T15:04:25;6.10;;;4.90;;
14858;SDS011;7521;51.700;6.874;2023-05-07T15:07:30;4.90;;;4.32;;
14858;SDS011;7521;51.700;6.874;2023-05-07T15:10:37;8.90;;;4.73;;
14858;SDS011;7521;51.700;6.874;2023-05-07T15:13:45;5.57;;;4.77;;
14858;SDS011;7521;51.700;6.874;2023-05-07T15:16:50;5.47;;;4.75;;
14858;SDS011;7521;51.700;6.874;2023-05-07T15:19:56;5.30;;;4.68;;
14858;SDS011;7521;51.700;6.874;2023-05-07T15:23:01;7.60;;;5.53;;
14858;SDS011;7521;51.700;6.874;2023-05-07T15:26:06;6.77;;;5.53;;
14858;SDS011;7521;51.700;6.874;2023-05-07T15:29:12;5.40;;;4.90;;
14858;SDS011;7521;51.700;6.874;2023-05-07T15:32:18;6.50;;;5.10;;
14858;SDS011;7521;51.700;6.874;2023-05-07T15:35:23;6.72;;;6.03;;
14858;SDS011;7521;51.700;6.874;2023-05-07T15:38:30;7.07;;;6.37;;
14858;SDS011;7521;51.700;6.874;2023-05-07T15:41:35;6.73;;;6.00;;
14858;SDS011;7521;51.700;6.874;2023-05-07T15:44:41;8.87;;;6.63;;
14858;SDS011;7521;51.700;6.874;2023-05-07T15:47:47;7.60;;;6.85;;
14858;SDS011;7521;51.700;6.874;2023-05-07T15:50:52;8.07;;;6.77;;
14858;SDS011;7521;51.700;6.874;2023-05-07T15:53:57;6.63;;;5.93;;
14858;SDS011;7521;51.700;6.874;2023-05-07T15:57:03;8.33;;;7.40;;
14858;SDS011;7521;51.700;6.874;2023-05-07T16:00:08;8.03;;;6.07;;
14858;SDS011;7521;51.700;6.874;2023-05-07T16:03:15;8.97;;;6.13;;
14858;SDS011;7521;51.700;6.874;2023-05-07T16:06:20;9.03;;;6.77;;
14858;SDS011;7521;51.700;6.874;2023-05-07T16:09:25;9.00;;;7.53;;
14858;SDS011;7521;51.700;6.874;2023-05-07T16:12:33;8.97;;;8.07;;
14858;SDS011;7521;51.700;6.874;2023-05-07T16:15:38;9.33;;;7.93;;
14858;SDS011;7521;51.700;6.874;2023-05-07T16:18:43;11.33;;;8.80;;
14858;SDS011;7521;51.700;6.874;2023-05-07T16:21:48;8.68;;;7.85;;
14858;SDS011;7521;51.700;6.874;2023-05-07T16:24:53;9.13;;;8.20;;
14858;SDS011;7521;51.700;6.874;2023-05-07T16:27:59;8.77;;;7.87;;
14858;SDS011;7521;51.700;6.874;2023-05-07T16:31:06;11.37;;;10.27;;
14858;SDS011;7521;51.700;6.874;2023-05-07T16:34:11;9.77;;;8.30;;
14858;SDS011;7521;51.700;6.874;2023-05-07T16:37:17;9.03;;;8.13;;
14858;SDS011;7521;51.700;6.874;2023-05-07T16:40:23;9.03;;;8.10;;
14858;SDS011;7521;51.700;6.874;2023-05-07T16:43:28;10.50;;;9.40;;
14858;SDS011;7521;51.700;6.874;2023-05-07T16:46:33;11.30;;;8.47;;
14858;SDS011;7521;51.700;6.874;2023-05-07T16:49:39;8.33;;;7.43;;
14858;SDS011;7521;51.700;6.874;2023-05-07T16:52:44;8.57;;;6.93;;
14858;SDS011;7521;51.700;6.874;2023-05-07T16:55:49;8.90;;;8.00;;
14858;SDS011;7521;51.700;6.874;2023-05-07T16:58:55;7.22;;;6.53;;
14858;SDS011;7521;51.700;6.874;2023-05-07T17:02:00;10.90;;;7.97;;
14858;SDS011;7521;51.700;6.874;2023-05-07T17:05:05;8.40;;;7.60;;
14858;SDS011;7521;51.700;6.874;2023-05-07T17:08:10;10.07;;;9.07;;
14858;SDS011;7521;51.700;6.874;2023-05-07T17:11:17;9.43;;;7.57;;
14858;SDS011;7521;51.700;6.874;2023-05-07T17:14:22;9.97;;;8.07;;
14858;SDS011;7521;51.700;6.874;2023-05-07T17:17:27;9.52;;;7.38;;
14858;SDS011;7521;51.700;6.874;2023-05-07T17:20:33;8.63;;;7.65;;
14858;SDS011;7521;51.700;6.874;2023-05-07T17:23:38;8.00;;;7.20;;
14858;SDS011;7521;51.700;6.874;2023-05-07T17:26:43;8.63;;;7.83;;
14858;SDS011;7521;51.700;6.874;2023-05-07T17:29:48;8.43;;;7.63;;
14858;SDS011;7521;51.700;6.874;2023-05-07T17:32:54;9.50;;;6.97;;
14858;SDS011;7521;51.700;6.874;2023-05-07T17:36:00;8.67;;;7.50;;
14858;SDS011;7521;51.700;6.874;2023-05-07T17:39:07;8.60;;;7.73;;
14858;SDS011;7521;51.700;6.874;2023-05-07T17:42:12;9.70;;;8.57;;
14858;SDS011;7521;51.700;6.874;2023-05-07T17:45:17;9.07;;;8.18;;
14858;SDS011;7521;51.700;6.874;2023-05-07T17:48:22;10.68;;;9.50;;
14858;SDS011;7521;51.700;6.874;2023-05-07T17:51:27;10.20;;;9.30;;
14858;SDS011;7521;51.700;6.874;2023-05-07T17:54:33;10.83;;;9.73;;
14858;SDS011;7521;51.700;6.874;2023-05-07T17:57:38;10.80;;;9.67;;
14858;SDS011;7521;51.700;6.874;2023-05-07T18:00:43;11.15;;;10.02;;
14858;SDS011;7521;51.700;6.874;2023-05-07T18:03:48;11.40;;;10.23;;
14858;SDS011;7521;51.700;6.874;2023-05-07T18:06:54;10.93;;;9.80;;
14858;SDS011;7521;51.700;6.874;2023-05-07T18:09:59;10.67;;;9.67;;
14858;SDS011;7521;51.700;6.874;2023-05-07T18:13:04;11.87;;;10.67;;
14858;SDS011;7521;51.700;6.874;2023-05-07T18:16:09;11.40;;;10.30;;
14858;SDS011;7521;51.700;6.874;2023-05-07T18:19:14;11.13;;;10.13;;
14858;SDS011;7521;51.700;6.874;2023-05-07T18:22:19;11.95;;;10.75;;
14858;SDS011;7521;51.700;6.874;2023-05-07T18:25:25;10.75;;;9.73;;
14858;SDS011;7521;51.700;6.874;2023-05-07T18:28:30;11.93;;;10.73;;
14858;SDS011;7521;51.700;6.874;2023-05-07T18:31:35;11.97;;;10.77;;
14858;SDS011;7521;51.700;6.874;2023-05-07T18:34:40;11.23;;;9.40;;
14858;SDS011;7521;51.700;6.874;2023-05-07T18:37:45;13.40;;;10.32;;
14858;SDS011;7521;51.700;6.874;2023-05-07T18:40:51;11.10;;;10.00;;
14858;SDS011;7521;51.700;6.874;2023-05-07T18:43:56;12.00;;;10.80;;
14858;SDS011;7521;51.700;6.874;2023-05-07T18:47:01;12.10;;;10.27;;
14858;SDS011;7521;51.700;6.874;2023-05-07T18:50:06;11.77;;;10.67;;